sensor_id;sensor_type;location;lat;lon;timestamp;P1;durP1;ratioP1;P2;durP2;ratioP2
22924;SDS011;11628;51.072;3.712;2023-03-14T00:02:06;6.75;;;1.75;;
22924;SDS011;11628;51.072;3.712;2023-03-14T00:04:32;7.55;;;1.23;;
22924;SDS011;11628;51.072;3.712;2023-03-14T00:06:58;5.20;;;1.40;;
22924;SDS011;11628;51.072;3.712;2023-03-14T00:09:24;5.30;;;1.15;;
22924;SDS011;11628;51.072;3.712;2023-03-14T00:11:52;7.45;;;1.40;;
22924;SDS011;11628;51.072;3.712;2023-03-14T00:14:18;5.75;;;1.13;;
22924;SDS011;11628;51.072;3.712;2023-03-14T00:16:47;4.82;;;1.20;;
22924;SDS011;11628;51.072;3.712;2023-03-14T00:19:13;4.88;;;1.00;;
22924;SDS011;11628;51.072;3.712;2023-03-14T00:21:39;7.95;;;1.13;;
22924;SDS011;11628;51.072;3.712;2023-03-14T00:24:05;7.32;;;1.58;;
22924;SDS011;11628;51.072;3.712;2023-03-14T00:26:31;5.03;;;1.15;;
22924;SDS011;11628;51.072;3.712;2023-03-14T00:28:56;5.88;;;1.10;;
22924;SDS011;11628;51.072;3.712;2023-03-14T00:31:22;9.50;;;1.88;;
22924;SDS011;11628;51.072;3.712;2023-03-14T00:33:48;3.50;;;1.45;;
22924;SDS011;11628;51.072;3.712;2023-03-14T00:36:16;8.57;;;1.75;;
22924;SDS011;11628;51.072;3.712;2023-03-14T00:38:43;12.05;;;1.95;;
22924;SDS011;11628;51.072;3.712;2023-03-14T00:41:10;7.40;;;1.55;;
22924;SDS011;11628;51.072;3.712;2023-03-14T00:43:38;6.70;;;1.38;;
22924;SDS011;11628;51.072;3.712;2023-03-14T00:46:04;7.85;;;1.95;;
22924;SDS011;11628;51.072;3.712;2023-03-14T00:48:30;9.52;;;2.22;;
22924;SDS011;11628;51.072;3.712;2023-03-14T00:50:56;8.02;;;1.50;;
22924;SDS011;11628;51.072;3.712;2023-03-14T00:53:22;6.43;;;1.40;;
22924;SDS011;11628;51.072;3.712;2023-03-14T00:55:48;7.70;;;1.70;;
22924;SDS011;11628;51.072;3.712;2023-03-14T00:58:15;9.00;;;2.25;;
22924;SDS011;11628;51.072;3.712;2023-03-14T01:00:42;9.60;;;2.60;;
22924;SDS011;11628;51.072;3.712;2023-03-14T01:03:08;7.30;;;1.85;;
22924;SDS011;11628;51.072;3.712;2023-03-14T01:05:35;6.68;;;1.30;;
22924;SDS011;11628;51.072;3.712;2023-03-14T01:08:01;9.55;;;2.00;;
22924;SDS011;11628;51.072;3.712;2023-03-14T01:10:28;7.85;;;1.55;;
22924;SDS011;11628;51.072;3.712;2023-03-14T01:12:53;10.35;;;1.90;;
22924;SDS011;11628;51.072;3.712;2023-03-14T01:15:19;6.63;;;1.45;;
22924;SDS011;11628;51.072;3.712;2023-03-14T01:17:45;8.30;;;1.83;;
22924;SDS011;11628;51.072;3.712;2023-03-14T01:20:12;11.70;;;2.17;;
22924;SDS011;11628;51.072;3.712;2023-03-14T01:22:39;7.30;;;1.60;;
22924;SDS011;11628;51.072;3.712;2023-03-14T01:25:06;11.27;;;2.13;;
22924;SDS011;11628;51.072;3.712;2023-03-14T01:27:33;9.13;;;1.55;;
22924;SDS011;11628;51.072;3.712;2023-03-14T01:29:59;7.85;;;1.75;;
22924;SDS011;11628;51.072;3.712;2023-03-14T01:32:25;9.57;;;1.80;;
22924;SDS011;11628;51.072;3.712;2023-03-14T01:34:51;11.60;;;2.13;;
22924;SDS011;11628;51.072;3.712;2023-03-14T01:37:17;7.63;;;1.58;;
22924;SDS011;11628;51.072;3.712;2023-03-14T01:39:42;9.48;;;1.77;;
22924;SDS011;11628;51.072;3.712;2023-03-14T01:42:08;10.18;;;2.00;;
22924;SDS011;11628;51.072;3.712;2023-03-14T01:47:50;5.95;;;1.80;;
22924;SDS011;11628;51.072;3.712;2023-03-14T01:50:16;9.48;;;2.17;;
22924;SDS011;11628;51.072;3.712;2023-03-14T01:52:46;10.73;;;2.15;;
22924;SDS011;11628;51.072;3.712;2023-03-14T01:55:19;7.40;;;1.75;;
22924;SDS011;11628;51.072;3.712;2023-03-14T01:57:50;9.30;;;2.20;;
22924;SDS011;11628;51.072;3.712;2023-03-14T02:00:21;10.85;;;1.52;;
22924;SDS011;11628;51.072;3.712;2023-03-14T02:02:49;8.32;;;1.63;;
22924;SDS011;11628;51.072;3.712;2023-03-14T02:05:19;8.00;;;1.48;;
22924;SDS011;11628;51.072;3.712;2023-03-14T02:07:50;10.90;;;1.73;;
22924;SDS011;11628;51.072;3.712;2023-03-14T02:10:18;7.82;;;1.10;;
22924;SDS011;11628;51.072;3.712;2023-03-14T02:12:48;6.28;;;1.33;;
22924;SDS011;11628;51.072;3.712;2023-03-14T02:15:15;6.80;;;1.27;;
22924;SDS011;11628;51.072;3.712;2023-03-14T02:17:42;6.30;;;1.17;;
22924;SDS011;11628;51.072;3.712;2023-03-14T02:20:13;7.40;;;1.00;;
22924;SDS011;11628;51.072;3.712;2023-03-14T02:22:46;8.20;;;1.38;;
22924;SDS011;11628;51.072;3.712;2023-03-14T02:28:02;7.50;;;1.17;;
22924;SDS011;11628;51.072;3.712;2023-03-14T02:30:29;5.38;;;1.00;;
22924;SDS011;11628;51.072;3.712;2023-03-14T02:32:58;4.68;;;1.05;;
22924;SDS011;11628;51.072;3.712;2023-03-14T02:35:29;5.70;;;0.85;;
22924;SDS011;11628;51.072;3.712;2023-03-14T02:41:04;3.25;;;0.60;;
22924;SDS011;11628;51.072;3.712;2023-03-14T02:43:30;3.85;;;0.70;;
22924;SDS011;11628;51.072;3.712;2023-03-14T02:45:56;5.00;;;0.82;;
22924;SDS011;11628;51.072;3.712;2023-03-14T02:48:26;4.60;;;1.15;;
22924;SDS011;11628;51.072;3.712;2023-03-14T02:50:57;3.67;;;1.55;;
22924;SDS011;11628;51.072;3.712;2023-03-14T02:53:28;2.83;;;0.57;;
22924;SDS011;11628;51.072;3.712;2023-03-14T02:55:58;3.65;;;0.85;;
22924;SDS011;11628;51.072;3.712;2023-03-14T02:58:25;3.42;;;0.85;;
22924;SDS011;11628;51.072;3.712;2023-03-14T03:00:52;1.65;;;0.68;;
22924;SDS011;11628;51.072;3.712;2023-03-14T03:03:18;3.33;;;0.70;;
22924;SDS011;11628;51.072;3.712;2023-03-14T03:05:47;3.63;;;0.95;;
22924;SDS011;11628;51.072;3.712;2023-03-14T03:08:17;7.65;;;1.30;;
22924;SDS011;11628;51.072;3.712;2023-03-14T03:10:43;4.70;;;1.20;;
22924;SDS011;11628;51.072;3.712;2023-03-14T03:13:09;6.57;;;1.63;;
22924;SDS011;11628;51.072;3.712;2023-03-14T03:15:35;7.13;;;1.63;;
22924;SDS011;11628;51.072;3.712;2023-03-14T03:18:01;6.78;;;1.70;;
22924;SDS011;11628;51.072;3.712;2023-03-14T03:20:26;5.32;;;1.60;;
22924;SDS011;11628;51.072;3.712;2023-03-14T03:22:52;8.07;;;1.95;;
22924;SDS011;11628;51.072;3.712;2023-03-14T03:25:18;7.65;;;2.40;;
22924;SDS011;11628;51.072;3.712;2023-03-14T03:27:43;6.88;;;1.75;;
22924;SDS011;11628;51.072;3.712;2023-03-14T03:30:09;9.02;;;1.88;;
22924;SDS011;11628;51.072;3.712;2023-03-14T03:32:35;6.47;;;2.45;;
22924;SDS011;11628;51.072;3.712;2023-03-14T03:35:02;7.55;;;2.63;;
22924;SDS011;11628;51.072;3.712;2023-03-14T03:37:32;7.95;;;2.30;;
22924;SDS011;11628;51.072;3.712;2023-03-14T03:39:58;5.55;;;2.20;;
22924;SDS011;11628;51.072;3.712;2023-03-14T03:42:26;7.03;;;2.00;;
22924;SDS011;11628;51.072;3.712;2023-03-14T03:44:52;4.57;;;2.20;;
22924;SDS011;11628;51.072;3.712;2023-03-14T03:47:17;5.65;;;2.42;;
22924;SDS011;11628;51.072;3.712;2023-03-14T03:49:43;6.97;;;2.40;;
22924;SDS011;11628;51.072;3.712;2023-03-14T03:52:09;8.80;;;3.15;;
22924;SDS011;11628;51.072;3.712;2023-03-14T03:54:35;7.88;;;2.53;;
22924;SDS011;11628;51.072;3.712;2023-03-14T03:57:01;7.55;;;2.85;;
22924;SDS011;11628;51.072;3.712;2023-03-14T03:59:26;6.43;;;2.63;;
22924;SDS011;11628;51.072;3.712;2023-03-14T04:01:52;8.50;;;3.20;;
22924;SDS011;11628;51.072;3.712;2023-03-14T04:04:18;10.45;;;3.45;;
22924;SDS011;11628;51.072;3.712;2023-03-14T04:06:43;5.55;;;2.95;;
22924;SDS011;11628;51.072;3.712;2023-03-14T04:09:10;8.00;;;3.25;;
22924;SDS011;11628;51.072;3.712;2023-03-14T04:11:36;9.48;;;3.85;;
22924;SDS011;11628;51.072;3.712;2023-03-14T04:14:03;7.90;;;3.35;;
22924;SDS011;11628;51.072;3.712;2023-03-14T04:16:30;9.93;;;3.78;;
22924;SDS011;11628;51.072;3.712;2023-03-14T04:18:58;6.72;;;3.40;;
22924;SDS011;11628;51.072;3.712;2023-03-14T04:21:25;8.02;;;3.80;;
22924;SDS011;11628;51.072;3.712;2023-03-14T04:23:50;8.55;;;3.60;;
22924;SDS011;11628;51.072;3.712;2023-03-14T04:26:16;8.20;;;3.35;;
22924;SDS011;11628;51.072;3.712;2023-03-14T04:28:42;7.50;;;3.60;;
22924;SDS011;11628;51.072;3.712;2023-03-14T04:31:09;7.57;;;3.53;;
22924;SDS011;11628;51.072;3.712;2023-03-14T04:33:36;4.95;;;3.28;;
22924;SDS011;11628;51.072;3.712;2023-03-14T04:36:02;8.70;;;3.85;;
22924;SDS011;11628;51.072;3.712;2023-03-14T04:38:29;10.50;;;3.55;;
22924;SDS011;11628;51.072;3.712;2023-03-14T04:40:55;11.07;;;4.00;;
22924;SDS011;11628;51.072;3.712;2023-03-14T04:43:20;8.40;;;3.22;;
22924;SDS011;11628;51.072;3.712;2023-03-14T04:45:46;8.48;;;3.33;;
22924;SDS011;11628;51.072;3.712;2023-03-14T04:48:12;7.57;;;2.80;;
22924;SDS011;11628;51.072;3.712;2023-03-14T04:50:38;7.53;;;3.17;;
22924;SDS011;11628;51.072;3.712;2023-03-14T04:53:04;6.72;;;3.00;;
22924;SDS011;11628;51.072;3.712;2023-03-14T04:55:30;6.07;;;2.85;;
22924;SDS011;11628;51.072;3.712;2023-03-14T04:57:57;5.10;;;2.53;;
22924;SDS011;11628;51.072;3.712;2023-03-14T05:00:23;4.00;;;2.33;;
22924;SDS011;11628;51.072;3.712;2023-03-14T05:02:49;5.65;;;2.58;;
22924;SDS011;11628;51.072;3.712;2023-03-14T05:05:15;6.28;;;2.55;;
22924;SDS011;11628;51.072;3.712;2023-03-14T05:07:41;4.20;;;2.03;;
22924;SDS011;11628;51.072;3.712;2023-03-14T05:10:07;8.90;;;2.30;;
22924;SDS011;11628;51.072;3.712;2023-03-14T05:12:33;3.75;;;1.90;;
22924;SDS011;11628;51.072;3.712;2023-03-14T05:14:59;5.47;;;1.80;;
22924;SDS011;11628;51.072;3.712;2023-03-14T05:17:24;3.75;;;1.75;;
22924;SDS011;11628;51.072;3.712;2023-03-14T05:19:50;4.60;;;1.23;;
22924;SDS011;11628;51.072;3.712;2023-03-14T05:22:17;3.88;;;1.50;;
22924;SDS011;11628;51.072;3.712;2023-03-14T05:24:43;2.95;;;1.77;;
22924;SDS011;11628;51.072;3.712;2023-03-14T05:27:09;6.80;;;1.63;;
22924;SDS011;11628;51.072;3.712;2023-03-14T05:29:34;7.15;;;2.00;;
22924;SDS011;11628;51.072;3.712;2023-03-14T05:32:00;4.78;;;1.90;;
22924;SDS011;11628;51.072;3.712;2023-03-14T05:34:26;4.85;;;1.77;;
22924;SDS011;11628;51.072;3.712;2023-03-14T05:36:52;5.60;;;2.30;;
22924;SDS011;11628;51.072;3.712;2023-03-14T05:39:18;7.25;;;2.30;;
22924;SDS011;11628;51.072;3.712;2023-03-14T05:41:43;4.80;;;2.58;;
22924;SDS011;11628;51.072;3.712;2023-03-14T05:44:09;6.68;;;4.22;;
22924;SDS011;11628;51.072;3.712;2023-03-14T05:46:35;10.35;;;3.95;;
22924;SDS011;11628;51.072;3.712;2023-03-14T05:49:00;8.00;;;4.28;;
22924;SDS011;11628;51.072;3.712;2023-03-14T05:51:26;8.77;;;4.72;;
22924;SDS011;11628;51.072;3.712;2023-03-14T05:53:52;8.98;;;4.75;;
22924;SDS011;11628;51.072;3.712;2023-03-14T05:56:17;7.45;;;4.90;;
22924;SDS011;11628;51.072;3.712;2023-03-14T05:58:44;12.10;;;5.50;;
22924;SDS011;11628;51.072;3.712;2023-03-14T06:01:10;9.60;;;5.05;;
22924;SDS011;11628;51.072;3.712;2023-03-14T06:03:36;9.98;;;5.45;;
22924;SDS011;11628;51.072;3.712;2023-03-14T06:06:01;9.65;;;4.50;;
22924;SDS011;11628;51.072;3.712;2023-03-14T06:08:27;9.05;;;3.60;;
22924;SDS011;11628;51.072;3.712;2023-03-14T06:10:53;8.30;;;3.28;;
22924;SDS011;11628;51.072;3.712;2023-03-14T06:13:19;8.23;;;2.55;;
22924;SDS011;11628;51.072;3.712;2023-03-14T06:15:45;5.60;;;2.20;;
22924;SDS011;11628;51.072;3.712;2023-03-14T06:18:11;5.85;;;3.08;;
22924;SDS011;11628;51.072;3.712;2023-03-14T06:20:38;6.55;;;2.75;;
22924;SDS011;11628;51.072;3.712;2023-03-14T06:23:05;9.45;;;3.33;;
22924;SDS011;11628;51.072;3.712;2023-03-14T06:25:32;8.38;;;3.17;;
22924;SDS011;11628;51.072;3.712;2023-03-14T06:27:58;6.38;;;2.67;;
22924;SDS011;11628;51.072;3.712;2023-03-14T06:30:24;5.97;;;2.55;;
22924;SDS011;11628;51.072;3.712;2023-03-14T06:32:50;7.07;;;3.50;;
22924;SDS011;11628;51.072;3.712;2023-03-14T06:35:16;7.10;;;2.60;;
22924;SDS011;11628;51.072;3.712;2023-03-14T06:37:42;6.63;;;2.63;;
22924;SDS011;11628;51.072;3.712;2023-03-14T06:40:09;7.05;;;3.15;;
22924;SDS011;11628;51.072;3.712;2023-03-14T06:42:36;7.45;;;2.95;;
22924;SDS011;11628;51.072;3.712;2023-03-14T06:45:01;10.80;;;3.97;;
22924;SDS011;11628;51.072;3.712;2023-03-14T06:47:28;5.57;;;3.25;;
22924;SDS011;11628;51.072;3.712;2023-03-14T06:49:54;7.45;;;3.10;;
22924;SDS011;11628;51.072;3.712;2023-03-14T06:52:19;10.35;;;3.90;;
22924;SDS011;11628;51.072;3.712;2023-03-14T06:54:45;10.73;;;3.92;;
22924;SDS011;11628;51.072;3.712;2023-03-14T06:57:11;8.38;;;3.53;;
22924;SDS011;11628;51.072;3.712;2023-03-14T06:59:39;11.20;;;4.40;;
22924;SDS011;11628;51.072;3.712;2023-03-14T07:02:07;8.90;;;4.28;;
22924;SDS011;11628;51.072;3.712;2023-03-14T07:04:35;7.63;;;4.85;;
22924;SDS011;11628;51.072;3.712;2023-03-14T07:07:01;9.98;;;5.53;;
22924;SDS011;11628;51.072;3.712;2023-03-14T07:09:27;12.90;;;6.78;;
22924;SDS011;11628;51.072;3.712;2023-03-14T07:11:52;9.65;;;6.00;;
22924;SDS011;11628;51.072;3.712;2023-03-14T07:14:18;10.00;;;5.85;;
22924;SDS011;11628;51.072;3.712;2023-03-14T07:16:44;11.57;;;6.13;;
22924;SDS011;11628;51.072;3.712;2023-03-14T07:19:10;10.93;;;5.18;;
22924;SDS011;11628;51.072;3.712;2023-03-14T07:21:36;8.00;;;4.80;;
22924;SDS011;11628;51.072;3.712;2023-03-14T07:24:02;8.30;;;5.57;;
22924;SDS011;11628;51.072;3.712;2023-03-14T07:26:28;9.45;;;4.72;;
22924;SDS011;11628;51.072;3.712;2023-03-14T07:28:54;11.32;;;4.70;;
22924;SDS011;11628;51.072;3.712;2023-03-14T07:31:19;11.07;;;4.82;;
22924;SDS011;11628;51.072;3.712;2023-03-14T07:33:45;7.25;;;4.47;;
22924;SDS011;11628;51.072;3.712;2023-03-14T07:36:11;5.70;;;4.45;;
22924;SDS011;11628;51.072;3.712;2023-03-14T07:38:37;9.27;;;5.25;;
22924;SDS011;11628;51.072;3.712;2023-03-14T07:41:04;10.55;;;4.75;;
22924;SDS011;11628;51.072;3.712;2023-03-14T07:43:31;7.65;;;4.38;;
22924;SDS011;11628;51.072;3.712;2023-03-14T07:45:57;8.60;;;4.35;;
22924;SDS011;11628;51.072;3.712;2023-03-14T07:48:23;7.00;;;4.80;;
22924;SDS011;11628;51.072;3.712;2023-03-14T07:50:53;9.07;;;4.70;;
22924;SDS011;11628;51.072;3.712;2023-03-14T07:53:20;9.80;;;6.25;;
22924;SDS011;11628;51.072;3.712;2023-03-14T07:55:46;9.48;;;5.00;;
22924;SDS011;11628;51.072;3.712;2023-03-14T07:58:12;9.82;;;5.60;;
22924;SDS011;11628;51.072;3.712;2023-03-14T08:00:39;8.93;;;4.70;;
22924;SDS011;11628;51.072;3.712;2023-03-14T08:03:04;9.27;;;4.97;;
22924;SDS011;11628;51.072;3.712;2023-03-14T08:05:30;14.57;;;4.55;;
22924;SDS011;11628;51.072;3.712;2023-03-14T08:07:59;7.00;;;3.88;;
22924;SDS011;11628;51.072;3.712;2023-03-14T08:10:24;10.13;;;3.85;;
22924;SDS011;11628;51.072;3.712;2023-03-14T08:12:54;9.15;;;3.70;;
22924;SDS011;11628;51.072;3.712;2023-03-14T08:15:21;8.48;;;4.47;;
22924;SDS011;11628;51.072;3.712;2023-03-14T08:17:47;9.55;;;5.13;;
22924;SDS011;11628;51.072;3.712;2023-03-14T08:20:19;10.35;;;5.28;;
22924;SDS011;11628;51.072;3.712;2023-03-14T08:22:46;9.23;;;4.88;;
22924;SDS011;11628;51.072;3.712;2023-03-14T08:25:12;9.88;;;4.80;;
22924;SDS011;11628;51.072;3.712;2023-03-14T08:27:38;7.43;;;5.15;;
22924;SDS011;11628;51.072;3.712;2023-03-14T08:30:04;12.27;;;5.10;;
22924;SDS011;11628;51.072;3.712;2023-03-14T08:32:31;9.30;;;5.70;;
22924;SDS011;11628;51.072;3.712;2023-03-14T08:34:57;9.85;;;5.60;;
22924;SDS011;11628;51.072;3.712;2023-03-14T08:37:23;9.50;;;5.30;;
22924;SDS011;11628;51.072;3.712;2023-03-14T08:39:50;7.65;;;4.95;;
22924;SDS011;11628;51.072;3.712;2023-03-14T08:42:16;8.57;;;4.75;;
22924;SDS011;11628;51.072;3.712;2023-03-14T08:44:42;8.65;;;4.13;;
22924;SDS011;11628;51.072;3.712;2023-03-14T08:47:08;4.75;;;3.40;;
22924;SDS011;11628;51.072;3.712;2023-03-14T08:49:34;4.93;;;3.28;;
22924;SDS011;11628;51.072;3.712;2023-03-14T08:52:03;7.85;;;4.03;;
22924;SDS011;11628;51.072;3.712;2023-03-14T08:54:29;8.20;;;4.30;;
22924;SDS011;11628;51.072;3.712;2023-03-14T08:56:56;5.63;;;4.55;;
22924;SDS011;11628;51.072;3.712;2023-03-14T08:59:22;13.35;;;9.52;;
22924;SDS011;11628;51.072;3.712;2023-03-14T09:01:48;7.65;;;3.80;;
22924;SDS011;11628;51.072;3.712;2023-03-14T09:04:13;10.05;;;3.67;;
22924;SDS011;11628;51.072;3.712;2023-03-14T09:06:39;9.35;;;3.28;;
22924;SDS011;11628;51.072;3.712;2023-03-14T09:09:05;14.45;;;3.08;;
22924;SDS011;11628;51.072;3.712;2023-03-14T09:11:31;15.88;;;5.00;;
22924;SDS011;11628;51.072;3.712;2023-03-14T09:13:57;11.18;;;3.67;;
22924;SDS011;11628;51.072;3.712;2023-03-14T09:16:23;11.52;;;2.97;;
22924;SDS011;11628;51.072;3.712;2023-03-14T09:18:49;11.23;;;3.25;;
22924;SDS011;11628;51.072;3.712;2023-03-14T09:21:15;14.90;;;3.67;;
22924;SDS011;11628;51.072;3.712;2023-03-14T09:23:40;12.57;;;3.05;;
22924;SDS011;11628;51.072;3.712;2023-03-14T09:26:07;14.30;;;3.50;;
22924;SDS011;11628;51.072;3.712;2023-03-14T09:28:33;12.55;;;4.32;;
22924;SDS011;11628;51.072;3.712;2023-03-14T09:31:04;12.60;;;3.00;;
22924;SDS011;11628;51.072;3.712;2023-03-14T09:33:31;9.02;;;2.90;;
22924;SDS011;11628;51.072;3.712;2023-03-14T09:36:00;8.93;;;2.30;;
22924;SDS011;11628;51.072;3.712;2023-03-14T09:38:26;9.05;;;2.28;;
22924;SDS011;11628;51.072;3.712;2023-03-14T09:40:52;9.65;;;2.50;;
22924;SDS011;11628;51.072;3.712;2023-03-14T09:43:19;7.57;;;2.20;;
22924;SDS011;11628;51.072;3.712;2023-03-14T09:45:47;9.40;;;2.97;;
22924;SDS011;11628;51.072;3.712;2023-03-14T09:48:16;10.30;;;2.38;;
22924;SDS011;11628;51.072;3.712;2023-03-14T09:50:46;11.05;;;3.22;;
22924;SDS011;11628;51.072;3.712;2023-03-14T09:53:19;9.07;;;2.67;;
22924;SDS011;11628;51.072;3.712;2023-03-14T09:55:49;12.27;;;2.10;;
22924;SDS011;11628;51.072;3.712;2023-03-14T09:58:19;4.50;;;1.52;;
22924;SDS011;11628;51.072;3.712;2023-03-14T10:00:45;6.78;;;1.65;;
22924;SDS011;11628;51.072;3.712;2023-03-14T10:05:37;5.32;;;1.58;;
22924;SDS011;11628;51.072;3.712;2023-03-14T10:08:04;5.40;;;1.40;;
22924;SDS011;11628;51.072;3.712;2023-03-14T10:10:33;4.75;;;1.35;;
22924;SDS011;11628;51.072;3.712;2023-03-14T10:12:59;6.07;;;1.33;;
22924;SDS011;11628;51.072;3.712;2023-03-14T10:15:58;5.38;;;1.20;;
22924;SDS011;11628;51.072;3.712;2023-03-14T10:18:27;5.63;;;1.17;;
22924;SDS011;11628;51.072;3.712;2023-03-14T10:23:53;2.83;;;1.20;;
22924;SDS011;11628;51.072;3.712;2023-03-14T10:26:28;7.15;;;1.75;;
22924;SDS011;11628;51.072;3.712;2023-03-14T10:29:10;5.80;;;1.73;;
22924;SDS011;11628;51.072;3.712;2023-03-14T10:31:48;9.15;;;2.00;;
22924;SDS011;11628;51.072;3.712;2023-03-14T10:34:17;7.18;;;1.63;;
22924;SDS011;11628;51.072;3.712;2023-03-14T10:36:58;8.13;;;1.48;;
22924;SDS011;11628;51.072;3.712;2023-03-14T10:39:46;6.95;;;1.70;;
22924;SDS011;11628;51.072;3.712;2023-03-14T10:42:24;7.85;;;2.28;;
22924;SDS011;11628;51.072;3.712;2023-03-14T10:44:57;4.28;;;1.48;;
22924;SDS011;11628;51.072;3.712;2023-03-14T10:47:26;8.77;;;2.40;;
22924;SDS011;11628;51.072;3.712;2023-03-14T10:49:53;8.25;;;2.17;;
22924;SDS011;11628;51.072;3.712;2023-03-14T10:52:27;7.93;;;2.47;;
22924;SDS011;11628;51.072;3.712;2023-03-14T10:55:08;7.20;;;1.90;;
22924;SDS011;11628;51.072;3.712;2023-03-14T10:57:39;8.05;;;2.20;;
22924;SDS011;11628;51.072;3.712;2023-03-14T11:00:06;8.30;;;1.98;;
22924;SDS011;11628;51.072;3.712;2023-03-14T11:05:31;9.95;;;3.70;;
22924;SDS011;11628;51.072;3.712;2023-03-14T11:08:09;11.15;;;2.30;;
22924;SDS011;11628;51.072;3.712;2023-03-14T11:10:40;7.53;;;1.65;;
22924;SDS011;11628;51.072;3.712;2023-03-14T11:13:18;7.82;;;2.28;;
22924;SDS011;11628;51.072;3.712;2023-03-14T11:16:09;9.07;;;2.53;;
22924;SDS011;11628;51.072;3.712;2023-03-14T11:21:13;4.97;;;1.42;;
22924;SDS011;11628;51.072;3.712;2023-03-14T11:27:07;4.22;;;1.50;;
22924;SDS011;11628;51.072;3.712;2023-03-14T11:29:51;7.57;;;1.73;;
22924;SDS011;11628;51.072;3.712;2023-03-14T11:35:03;5.47;;;1.23;;
22924;SDS011;11628;51.072;3.712;2023-03-14T11:37:41;7.50;;;1.35;;
22924;SDS011;11628;51.072;3.712;2023-03-14T11:40:18;15.48;;;2.95;;
22924;SDS011;11628;51.072;3.712;2023-03-14T11:42:48;23.50;;;5.13;;
22924;SDS011;11628;51.072;3.712;2023-03-14T11:45:30;21.17;;;4.00;;
22924;SDS011;11628;51.072;3.712;2023-03-14T11:50:50;10.77;;;2.10;;
22924;SDS011;11628;51.072;3.712;2023-03-14T11:53:21;16.63;;;2.22;;
22924;SDS011;11628;51.072;3.712;2023-03-14T11:55:53;17.20;;;2.17;;
22924;SDS011;11628;51.072;3.712;2023-03-14T12:00:53;24.15;;;4.30;;
22924;SDS011;11628;51.072;3.712;2023-03-14T12:03:29;14.95;;;3.80;;
22924;SDS011;11628;51.072;3.712;2023-03-14T12:06:09;13.82;;;3.40;;
22924;SDS011;11628;51.072;3.712;2023-03-14T12:08:46;19.02;;;2.92;;
22924;SDS011;11628;51.072;3.712;2023-03-14T12:11:17;15.82;;;2.53;;
22924;SDS011;11628;51.072;3.712;2023-03-14T12:13:53;11.98;;;2.35;;
22924;SDS011;11628;51.072;3.712;2023-03-14T12:18:48;17.35;;;2.65;;
22924;SDS011;11628;51.072;3.712;2023-03-14T12:21:14;18.90;;;3.83;;
22924;SDS011;11628;51.072;3.712;2023-03-14T12:23:58;20.15;;;2.90;;
22924;SDS011;11628;51.072;3.712;2023-03-14T12:29:09;21.00;;;3.58;;
22924;SDS011;11628;51.072;3.712;2023-03-14T12:31:43;20.73;;;3.15;;
22924;SDS011;11628;51.072;3.712;2023-03-14T12:42:08;23.45;;;4.65;;
22924;SDS011;11628;51.072;3.712;2023-03-14T12:44:44;19.85;;;3.30;;
22924;SDS011;11628;51.072;3.712;2023-03-14T12:47:40;14.77;;;2.20;;
22924;SDS011;11628;51.072;3.712;2023-03-14T12:50:07;17.15;;;3.00;;
22924;SDS011;11628;51.072;3.712;2023-03-14T12:52:51;20.77;;;3.78;;
22924;SDS011;11628;51.072;3.712;2023-03-14T12:58:31;16.00;;;3.30;;
22924;SDS011;11628;51.072;3.712;2023-03-14T13:01:04;11.35;;;2.47;;
22924;SDS011;11628;51.072;3.712;2023-03-14T13:03:51;14.23;;;2.42;;
22924;SDS011;11628;51.072;3.712;2023-03-14T13:09:34;19.38;;;4.32;;
22924;SDS011;11628;51.072;3.712;2023-03-14T13:12:11;17.10;;;4.00;;
22924;SDS011;11628;51.072;3.712;2023-03-14T13:14:48;12.55;;;2.42;;
22924;SDS011;11628;51.072;3.712;2023-03-14T13:17:19;11.10;;;1.95;;
22924;SDS011;11628;51.072;3.712;2023-03-14T13:19:55;15.18;;;2.35;;
22924;SDS011;11628;51.072;3.712;2023-03-14T13:22:27;16.80;;;3.85;;
22924;SDS011;11628;51.072;3.712;2023-03-14T13:25:01;21.63;;;2.72;;
22924;SDS011;11628;51.072;3.712;2023-03-14T13:27:30;14.93;;;2.65;;
22924;SDS011;11628;51.072;3.712;2023-03-14T13:29:58;19.42;;;2.38;;
22924;SDS011;11628;51.072;3.712;2023-03-14T13:32:29;19.52;;;2.88;;
22924;SDS011;11628;51.072;3.712;2023-03-14T13:34:55;16.35;;;2.90;;
22924;SDS011;11628;51.072;3.712;2023-03-14T13:37:23;17.83;;;3.30;;
22924;SDS011;11628;51.072;3.712;2023-03-14T13:39:51;18.73;;;3.70;;
22924;SDS011;11628;51.072;3.712;2023-03-14T13:42:20;29.40;;;15.15;;
22924;SDS011;11628;51.072;3.712;2023-03-14T13:44:49;13.40;;;2.35;;
22924;SDS011;11628;51.072;3.712;2023-03-14T13:47:18;7.65;;;1.70;;
22924;SDS011;11628;51.072;3.712;2023-03-14T13:49:46;9.88;;;2.00;;
22924;SDS011;11628;51.072;3.712;2023-03-14T13:54:56;10.68;;;1.80;;
22924;SDS011;11628;51.072;3.712;2023-03-14T13:57:23;11.10;;;2.17;;
22924;SDS011;11628;51.072;3.712;2023-03-14T14:00:03;11.65;;;1.77;;
22924;SDS011;11628;51.072;3.712;2023-03-14T14:02:33;8.00;;;1.85;;
22924;SDS011;11628;51.072;3.712;2023-03-14T14:05:00;6.55;;;1.63;;
22924;SDS011;11628;51.072;3.712;2023-03-14T14:07:26;6.80;;;1.50;;
22924;SDS011;11628;51.072;3.712;2023-03-14T14:09:53;7.38;;;1.60;;
22924;SDS011;11628;51.072;3.712;2023-03-14T14:15:05;1.75;;;0.60;;
22924;SDS011;11628;51.072;3.712;2023-03-14T14:17:41;3.15;;;1.00;;
22924;SDS011;11628;51.072;3.712;2023-03-14T14:20:50;4.30;;;1.10;;
22924;SDS011;11628;51.072;3.712;2023-03-14T14:23:27;6.50;;;1.10;;
22924;SDS011;11628;51.072;3.712;2023-03-14T14:25:55;2.47;;;0.80;;
22924;SDS011;11628;51.072;3.712;2023-03-14T14:33:40;5.00;;;1.45;;
22924;SDS011;11628;51.072;3.712;2023-03-14T14:36:12;2.28;;;0.80;;
22924;SDS011;11628;51.072;3.712;2023-03-14T14:38:48;4.20;;;1.10;;
22924;SDS011;11628;51.072;3.712;2023-03-14T14:41:39;3.37;;;1.07;;
22924;SDS011;11628;51.072;3.712;2023-03-14T14:44:06;5.25;;;1.02;;
22924;SDS011;11628;51.072;3.712;2023-03-14T14:46:33;4.97;;;0.90;;
22924;SDS011;11628;51.072;3.712;2023-03-14T14:49:11;5.05;;;0.95;;
22924;SDS011;11628;51.072;3.712;2023-03-14T14:51:48;5.18;;;0.93;;
22924;SDS011;11628;51.072;3.712;2023-03-14T14:54:16;7.97;;;1.60;;
22924;SDS011;11628;51.072;3.712;2023-03-14T14:56:50;5.20;;;1.08;;
22924;SDS011;11628;51.072;3.712;2023-03-14T14:59:21;6.18;;;1.58;;
22924;SDS011;11628;51.072;3.712;2023-03-14T15:01:50;4.15;;;0.98;;
22924;SDS011;11628;51.072;3.712;2023-03-14T15:04:21;4.20;;;1.33;;
22924;SDS011;11628;51.072;3.712;2023-03-14T15:06:47;5.95;;;1.20;;
22924;SDS011;11628;51.072;3.712;2023-03-14T15:09:15;8.70;;;3.95;;
22924;SDS011;11628;51.072;3.712;2023-03-14T15:11:45;8.75;;;2.65;;
22924;SDS011;11628;51.072;3.712;2023-03-14T15:14:12;10.38;;;4.72;;
22924;SDS011;11628;51.072;3.712;2023-03-14T15:16:38;9.30;;;3.25;;
22924;SDS011;11628;51.072;3.712;2023-03-14T15:19:21;11.02;;;1.55;;
22924;SDS011;11628;51.072;3.712;2023-03-14T15:21:49;8.63;;;1.83;;
22924;SDS011;11628;51.072;3.712;2023-03-14T15:24:15;14.00;;;4.50;;
22924;SDS011;11628;51.072;3.712;2023-03-14T15:26:41;13.95;;;2.63;;
22924;SDS011;11628;51.072;3.712;2023-03-14T15:29:09;9.90;;;1.55;;
22924;SDS011;11628;51.072;3.712;2023-03-14T15:31:37;10.05;;;1.50;;
22924;SDS011;11628;51.072;3.712;2023-03-14T15:34:04;13.18;;;1.63;;
22924;SDS011;11628;51.072;3.712;2023-03-14T15:36:31;10.40;;;1.80;;
22924;SDS011;11628;51.072;3.712;2023-03-14T15:38:59;8.98;;;1.58;;
22924;SDS011;11628;51.072;3.712;2023-03-14T15:41:25;13.13;;;1.63;;
22924;SDS011;11628;51.072;3.712;2023-03-14T15:43:52;14.90;;;2.05;;
22924;SDS011;11628;51.072;3.712;2023-03-14T15:46:18;12.38;;;1.92;;
22924;SDS011;11628;51.072;3.712;2023-03-14T15:48:47;12.73;;;2.03;;
22924;SDS011;11628;51.072;3.712;2023-03-14T15:51:14;17.15;;;3.20;;
22924;SDS011;11628;51.072;3.712;2023-03-14T15:53:40;11.93;;;2.75;;